Alvada, Ohio
Current Conditions -  °F | °C
As of 4:53 PM on Sunday 21 Dec 2014 (Local Time) from KFDY Reporting Station
Clear Clear  
Wind Chill: 29°   Ceiling: Unl
Heat Index: 34°   Visibility: 7mi
Dew Point: 25°   Wind: 6mph
Humidity: 70%   Direction: 90°E
Pressure: 30.19"   Gusts: NA
Location:  41.05°N, 83.4°W
Report Text: KFDY 212153Z AUTO 09005KT 7SM CLR 01/M04 A3019 RMK AO2 SLP231 T00111039
Loading
Personal Weather Stations






























Interactive Weather Map New forecast layout! Learn more

10-Day Weather Forecast

Advertisements
Track Severe Weather on mobile